createdAt,value
2022-10-30T00:00:20.103Z,100638.77
2022-10-30T00:03:16.174Z,100646.61
2022-10-30T00:05:48.033Z,100657.92
2022-10-30T00:08:19.513Z,100655.27
2022-10-30T00:10:50.323Z,100653.48
2022-10-30T00:13:19.316Z,100650.02
2022-10-30T00:15:53.595Z,100644.60
2022-10-30T00:18:21.863Z,100644.12
2022-10-30T00:20:50.269Z,100647.58
2022-10-30T00:23:20.333Z,100647.87
2022-10-30T00:26:08.026Z,100648.36
2022-10-30T00:28:36.258Z,100653.80
2022-10-30T00:31:05.878Z,100655.83
2022-10-30T00:33:34.331Z,100644.92
2022-10-30T00:36:05.112Z,100640.90
2022-10-30T00:38:33.674Z,100652.66
2022-10-30T00:41:23.565Z,100645.11
2022-10-30T00:43:52.641Z,100647.15
2022-10-30T00:46:38.741Z,100644.58
2022-10-30T00:49:16.852Z,100646.48
2022-10-30T00:51:50.449Z,100644.72
2022-10-30T00:54:20.395Z,100640.33
2022-10-30T00:56:50.029Z,100636.26
2022-10-30T00:59:26.431Z,100634.69
2022-10-30T01:01:55.567Z,100632.89
2022-10-30T01:04:29.005Z,100630.38
2022-10-30T01:07:05.577Z,100629.31
2022-10-30T01:09:34.165Z,100629.33
2022-10-30T01:12:02.359Z,100630.04
2022-10-30T01:14:31.185Z,100628.30
2022-10-30T01:17:55.786Z,100619.41
2022-10-30T01:21:23.584Z,100615.26
2022-10-30T01:24:22.416Z,100614.02
2022-10-30T01:27:36.068Z,100614.74
2022-10-30T01:30:52.239Z,100611.23
2022-10-30T01:34:13.562Z,100602.57
2022-10-30T01:37:06.312Z,100614.09
2022-10-30T01:39:39.934Z,100621.92
2022-10-30T01:42:44.228Z,100620.23
2022-10-30T01:45:59.647Z,100622.36
2022-10-30T01:49:03.696Z,100619.05
2022-10-30T01:52:25.144Z,100622.13
2022-10-30T01:55:42.602Z,100628.02
2022-10-30T01:58:29.333Z,100620.94
2022-10-30T02:00:59.380Z,100625.54
2022-10-30T02:03:46.452Z,100629.67
2022-10-30T02:06:14.749Z,100632.59
2022-10-30T02:08:43.198Z,100629.65
2022-10-30T02:11:12.375Z,100631.17
2022-10-30T02:13:40.721Z,100623.96
2022-10-30T02:16:10.677Z,100617.54
2022-10-30T02:18:56.557Z,100609.56
2022-10-30T02:21:42.546Z,100610.90
2022-10-30T02:24:10.914Z,100616.37
2022-10-30T02:26:39.214Z,100619.92
2022-10-30T02:29:07.856Z,100620.92
2022-10-30T02:31:37.414Z,100628.00
2022-10-30T02:34:06.044Z,100629.15
2022-10-30T02:36:34.373Z,100631.20
2022-10-30T02:39:02.634Z,100634.73
2022-10-30T02:41:30.871Z,100633.42
2022-10-30T02:44:16.687Z,100636.02
2022-10-30T02:47:02.765Z,100639.63
2022-10-30T02:49:48.656Z,100628.52
2022-10-30T02:52:16.990Z,100615.66
2022-10-30T02:55:03.333Z,100611.08
2022-10-30T02:57:49.067Z,100610.20
2022-10-30T03:00:17.787Z,100607.30
2022-10-30T03:02:46.029Z,100603.31
2022-10-30T03:05:31.600Z,100596.79
2022-10-30T03:08:00.316Z,100602.54
2022-10-30T03:10:28.752Z,100609.17
2022-10-30T03:12:58.566Z,100615.16
2022-10-30T03:15:26.935Z,100615.56
2022-10-30T03:17:55.652Z,100614.45
2022-10-30T03:20:24.627Z,100617.14
2022-10-30T03:23:10.207Z,100613.88
2022-10-30T03:25:38.410Z,100614.21
2022-10-30T03:28:06.674Z,100608.71
2022-10-30T03:30:34.924Z,100602.88
2022-10-30T03:33:03.138Z,100602.38
2022-10-30T03:35:31.534Z,100605.66
2022-10-30T03:37:59.826Z,100610.02
2022-10-30T03:40:28.262Z,100609.13
2022-10-30T03:42:56.816Z,100608.20
2022-10-30T03:45:25.635Z,100608.98
2022-10-30T03:47:54.038Z,100615.41
2022-10-30T03:50:22.309Z,100617.81
2022-10-30T03:52:50.524Z,100615.75
2022-10-30T03:55:37.211Z,100611.39
2022-10-30T03:58:06.504Z,100608.63
2022-10-30T04:00:36.155Z,100607.79
2022-10-30T04:03:08.725Z,100606.71
2022-10-30T04:05:39.062Z,100604.23
2022-10-30T04:08:24.940Z,100600.20
2022-10-30T04:10:53.338Z,100602.55
2022-10-30T04:13:21.711Z,100600.27
2022-10-30T04:15:57.160Z,100597.21
2022-10-30T04:18:43.650Z,100598.30
2022-10-30T04:21:29.201Z,100595.11
2022-10-30T04:24:16.825Z,100590.23
2022-10-30T04:26:45.136Z,100588.95
2022-10-30T04:29:13.599Z,100583.59
2022-10-30T04:31:41.852Z,100581.17
2022-10-30T04:34:29.781Z,100583.34
2022-10-30T04:37:15.830Z,100584.74
2022-10-30T04:39:46.458Z,100581.74
2022-10-30T04:42:14.895Z,100585.02
2022-10-30T04:44:43.095Z,100587.58
2022-10-30T04:47:12.359Z,100584.02
2022-10-30T04:49:40.583Z,100575.34
2022-10-30T04:52:08.822Z,100573.88
2022-10-30T04:54:54.530Z,100575.19
2022-10-30T04:57:40.927Z,100575.67
2022-10-30T05:00:11.765Z,100574.23
2022-10-30T05:02:40.183Z,100571.63
2022-10-30T05:05:10.544Z,100575.15
2022-10-30T05:07:38.970Z,100576.65
2022-10-30T05:10:07.863Z,100579.02
2022-10-30T05:12:36.166Z,100581.33
2022-10-30T05:15:05.298Z,100582.27
2022-10-30T05:17:33.759Z,100579.29
2022-10-30T05:20:20.363Z,100581.08
2022-10-30T05:23:06.502Z,100579.76
2022-10-30T05:25:35.127Z,100576.17
2022-10-30T05:28:06.540Z,100575.27
2022-10-30T05:30:35.340Z,100578.58
2022-10-30T05:33:11.463Z,100579.39
2022-10-30T05:35:39.839Z,100575.23
2022-10-30T05:38:08.271Z,100580.34
2022-10-30T05:40:36.873Z,100583.98
2022-10-30T05:43:06.021Z,100586.25
2022-10-30T05:45:34.248Z,100588.44
2022-10-30T05:48:06.874Z,100586.56
2022-10-30T05:50:35.162Z,100589.41
2022-10-30T05:53:05.350Z,100588.00
2022-10-30T05:55:33.787Z,100584.83
2022-10-30T05:58:19.435Z,100586.08
2022-10-30T06:00:47.644Z,100584.80
2022-10-30T06:03:15.869Z,100589.11
2022-10-30T06:05:47.013Z,100589.23
2022-10-30T06:08:18.174Z,100592.95
2022-10-30T06:10:46.381Z,100592.46
2022-10-30T06:13:14.634Z,100591.60
2022-10-30T06:15:42.874Z,100593.16
2022-10-30T06:18:11.253Z,100592.08
2022-10-30T06:20:41.612Z,100592.56
2022-10-30T06:23:27.341Z,100595.61
2022-10-30T06:25:55.611Z,100593.36
2022-10-30T06:28:23.867Z,100589.63
2022-10-30T06:30:55.320Z,100591.77
2022-10-30T06:33:23.542Z,100590.46
2022-10-30T06:35:51.932Z,100593.13
2022-10-30T06:38:20.218Z,100593.27
2022-10-30T06:40:49.762Z,100590.14
2022-10-30T06:43:17.984Z,100595.36
2022-10-30T06:45:46.320Z,100597.58
2022-10-30T06:48:14.611Z,100600.86
2022-10-30T06:50:42.902Z,100603.36
2022-10-30T06:53:11.204Z,100608.00
2022-10-30T06:55:39.402Z,100608.73
2022-10-30T06:58:07.808Z,100615.45
2022-10-30T07:00:36.093Z,100620.91
2022-10-30T07:03:04.864Z,100633.66
2022-10-30T07:05:33.083Z,100636.27
2022-10-30T07:08:01.421Z,100632.68
2022-10-30T07:10:29.858Z,100633.38
2022-10-30T07:13:16.071Z,100635.50
2022-10-30T07:15:44.442Z,100636.69
2022-10-30T07:18:12.704Z,100636.43
2022-10-30T07:20:41.122Z,100632.34
2022-10-30T07:23:09.346Z,100634.83
2022-10-30T07:25:37.554Z,100637.01
2022-10-30T07:28:06.316Z,100635.85
2022-10-30T07:30:35.110Z,100637.92
2022-10-30T07:33:07.656Z,100638.38
2022-10-30T07:35:36.303Z,100633.06
2022-10-30T07:38:22.023Z,100631.23
2022-10-30T07:40:53.866Z,100632.38
2022-10-30T07:43:39.953Z,100633.74
2022-10-30T07:46:09.136Z,100638.37
2022-10-30T07:48:37.977Z,100643.91
2022-10-30T07:51:06.515Z,100643.08
2022-10-30T07:53:52.715Z,100639.17
2022-10-30T07:56:21.178Z,100643.84
2022-10-30T07:59:06.897Z,100646.52
2022-10-30T08:01:35.384Z,100644.21
2022-10-30T08:04:03.817Z,100638.31
2022-10-30T08:06:50.149Z,100636.70
2022-10-30T08:09:18.418Z,100631.63
2022-10-30T08:12:04.824Z,100629.95
2022-10-30T08:14:50.871Z,100628.33
2022-10-30T08:17:20.126Z,100632.69
2022-10-30T08:19:48.380Z,100638.71
2022-10-30T08:22:16.781Z,100641.15
2022-10-30T08:24:45.252Z,100635.73
2022-10-30T08:27:15.258Z,100632.80
2022-10-30T08:29:43.547Z,100623.54
2022-10-30T08:32:11.913Z,100620.27
2022-10-30T08:34:41.667Z,100618.02
2022-10-30T08:37:09.935Z,100610.86
2022-10-30T08:39:38.849Z,100609.65
2022-10-30T08:42:07.358Z,100601.83
2022-10-30T08:44:35.663Z,100598.00
2022-10-30T08:47:03.900Z,100599.08
2022-10-30T08:49:32.184Z,100608.39
2022-10-30T08:52:00.907Z,100605.85
2022-10-30T08:54:29.189Z,100607.99
2022-10-30T08:57:15.116Z,100604.17
2022-10-30T08:59:43.378Z,100596.80
2022-10-30T09:02:11.758Z,100598.09
2022-10-30T09:04:40.140Z,100601.56
2022-10-30T09:07:11.937Z,100607.52
2022-10-30T09:10:02.251Z,100607.17
2022-10-30T09:12:48.403Z,100603.31
2022-10-30T09:15:33.898Z,100599.52
2022-10-30T09:18:20.149Z,100595.14
2022-10-30T09:20:49.710Z,100594.51
2022-10-30T09:23:17.988Z,100595.25
2022-10-30T09:25:46.190Z,100595.36
2022-10-30T09:28:14.397Z,100597.29
2022-10-30T09:31:02.311Z,100601.68
2022-10-30T09:33:31.796Z,100607.17
2022-10-30T09:36:02.605Z,100611.54
2022-10-30T09:38:31.283Z,100609.23
2022-10-30T09:41:23.919Z,100611.13
2022-10-30T09:44:23.054Z,100608.41
2022-10-30T09:47:23.467Z,100607.13
2022-10-30T09:50:16.730Z,100597.87
2022-10-30T09:53:07.106Z,100593.65
2022-10-30T09:56:03.349Z,100595.16
2022-10-30T09:59:02.792Z,100594.72
2022-10-30T10:01:43.796Z,100592.02
2022-10-30T10:04:33.357Z,100586.54
2022-10-30T10:07:29.111Z,100587.40
2022-10-30T10:10:05.436Z,100579.95
2022-10-30T10:12:40.642Z,100576.17
2022-10-30T10:15:35.200Z,100572.48
2022-10-30T10:21:29.205Z,100565.91
2022-10-30T10:24:03.567Z,100561.44
2022-10-30T10:27:14.128Z,100558.56
2022-10-30T10:30:05.248Z,100556.40
2022-10-30T10:36:37.390Z,100548.64
2022-10-30T10:39:23.431Z,100540.33
2022-10-30T10:42:38.548Z,100542.14
2022-10-30T10:45:20.524Z,100544.62
2022-10-30T10:48:31.871Z,100537.41
2022-10-30T10:51:09.802Z,100536.43
2022-10-30T10:53:53.531Z,100535.58
2022-10-30T10:56:29.725Z,100542.91
2022-10-30T10:59:41.223Z,100539.84
2022-10-30T11:02:09.515Z,100540.88
2022-10-30T11:04:46.810Z,100539.77
2022-10-30T11:07:32.328Z,100536.38
2022-10-30T11:10:02.437Z,100536.85
2022-10-30T11:12:48.172Z,100534.40
2022-10-30T11:15:52.287Z,100532.16
2022-10-30T11:18:20.650Z,100528.03
2022-10-30T11:21:10.297Z,100527.65
2022-10-30T11:23:44.180Z,100526.60
2022-10-30T11:26:18.234Z,100528.36
2022-10-30T11:28:52.620Z,100528.52
2022-10-30T11:31:38.133Z,100528.02
2022-10-30T11:34:18.862Z,100526.40
2022-10-30T11:36:50.193Z,100525.45
2022-10-30T11:39:36.066Z,100522.16
2022-10-30T11:42:16.281Z,100517.85
2022-10-30T11:44:51.955Z,100513.94
2022-10-30T11:47:30.929Z,100515.17
2022-10-30T11:50:06.645Z,100519.08
2022-10-30T11:52:43.456Z,100516.33
2022-10-30T11:55:27.338Z,100510.59
2022-10-30T11:57:58.438Z,100512.50
2022-10-30T12:00:45.325Z,100508.27
2022-10-30T12:03:34.225Z,100501.11
2022-10-30T12:06:24.876Z,100499.36
2022-10-30T12:09:12.337Z,100500.35
2022-10-30T12:11:44.941Z,100497.55
2022-10-30T12:14:22.610Z,100496.63
2022-10-30T12:16:53.285Z,100495.36
2022-10-30T12:19:24.422Z,100496.11
2022-10-30T12:21:57.150Z,100496.77
2022-10-30T12:24:31.867Z,100501.61
2022-10-30T12:27:12.517Z,100500.16
2022-10-30T12:30:13.267Z,100498.20
2022-10-30T12:33:22.770Z,100497.25
2022-10-30T12:36:06.593Z,100499.98
2022-10-30T12:38:59.096Z,100498.15
2022-10-30T12:41:54.891Z,100499.73
2022-10-30T12:45:08.053Z,100494.92
2022-10-30T12:47:45.878Z,100492.16
2022-10-30T12:50:13.993Z,100489.43
2022-10-30T12:52:50.100Z,100491.63
2022-10-30T12:55:29.954Z,100490.54
2022-10-30T12:58:44.650Z,100485.65
2022-10-30T13:01:59.203Z,100483.63
2022-10-30T13:04:42.216Z,100482.03
2022-10-30T13:07:22.501Z,100478.27
2022-10-30T13:10:34.536Z,100480.98
2022-10-30T13:13:16.740Z,100481.56
2022-10-30T13:15:58.281Z,100480.61
2022-10-30T13:18:44.277Z,100471.81
2022-10-30T13:21:54.158Z,100468.31
2022-10-30T13:24:57.911Z,100469.83
2022-10-30T13:27:50.900Z,100471.44
2022-10-30T13:30:25.592Z,100470.04
2022-10-30T13:33:15.141Z,100466.11
2022-10-30T13:36:21.851Z,100473.36
2022-10-30T13:39:22.160Z,100473.31
2022-10-30T13:42:14.933Z,100473.55
2022-10-30T13:45:11.150Z,100469.20
2022-10-30T13:48:04.059Z,100465.63
2022-10-30T13:51:14.755Z,100463.71
2022-10-30T13:53:48.381Z,100466.13
2022-10-30T13:56:19.880Z,100468.31
2022-10-30T13:59:16.964Z,100466.27
2022-10-30T14:02:04.576Z,100465.56
2022-10-30T14:05:01.897Z,100466.59
2022-10-30T14:08:01.813Z,100465.92
2022-10-30T14:10:45.658Z,100464.20
2022-10-30T14:13:57.497Z,100464.63
2022-10-30T14:16:39.076Z,100459.35
2022-10-30T14:19:18.125Z,100455.20
2022-10-30T14:21:55.842Z,100450.93
2022-10-30T14:24:45.226Z,100449.67
2022-10-30T14:27:33.570Z,100451.58
2022-10-30T14:30:03.138Z,100449.14
2022-10-30T14:32:52.553Z,100449.40
2022-10-30T14:35:35.278Z,100449.16
2022-10-30T14:38:26.436Z,100444.64
2022-10-30T14:40:54.580Z,100452.79
2022-10-30T14:44:23.596Z,100447.69
2022-10-30T14:47:31.925Z,100444.64
2022-10-30T14:50:26.290Z,100443.64
2022-10-30T14:53:20.868Z,100443.16
2022-10-30T14:56:00.193Z,100435.32
2022-10-30T14:59:08.943Z,100435.00
2022-10-30T15:02:04.084Z,100430.58
2022-10-30T15:04:52.130Z,100430.18
2022-10-30T15:07:38.385Z,100429.09
2022-10-30T15:10:45.323Z,100428.37
2022-10-30T15:13:31.340Z,100432.02
2022-10-30T15:16:08.453Z,100430.91
2022-10-30T15:18:39.803Z,100432.14
2022-10-30T15:21:18.737Z,100430.11
2022-10-30T15:23:47.058Z,100430.89
2022-10-30T15:26:23.799Z,100427.82
2022-10-30T15:28:53.837Z,100429.45
2022-10-30T15:31:25.363Z,100434.86
2022-10-30T15:34:23.070Z,100434.00
2022-10-30T15:37:12.866Z,100438.55
2022-10-30T15:39:41.072Z,100441.58
2022-10-30T15:42:10.078Z,100441.52
2022-10-30T15:44:43.167Z,100442.14
2022-10-30T15:47:21.015Z,100442.67
2022-10-30T15:50:07.115Z,100439.91
2022-10-30T15:52:35.639Z,100439.61
2022-10-30T15:55:13.495Z,100436.14
2022-10-30T15:58:04.868Z,100434.95
2022-10-30T16:00:38.231Z,100435.95
2022-10-30T16:03:12.812Z,100435.30
2022-10-30T16:06:13.302Z,100432.63
2022-10-30T16:08:48.067Z,100432.38
2022-10-30T16:11:34.679Z,100433.47
2022-10-30T16:14:09.086Z,100436.34
2022-10-30T16:16:37.690Z,100433.84
2022-10-30T16:19:06.142Z,100433.05
2022-10-30T16:21:35.186Z,100434.27
2022-10-30T16:24:05.271Z,100436.57
2022-10-30T16:26:37.383Z,100438.60
2022-10-30T16:29:26.951Z,100443.24
2022-10-30T16:32:16.753Z,100440.08
2022-10-30T16:35:04.418Z,100443.44
2022-10-30T16:37:53.253Z,100441.52
2022-10-30T16:40:28.670Z,100439.17
2022-10-30T16:43:34.962Z,100438.73
2022-10-30T16:46:15.607Z,100443.77
2022-10-30T16:48:53.820Z,100441.23
2022-10-30T16:51:22.957Z,100449.48
2022-10-30T16:54:23.711Z,100449.11
2022-10-30T16:56:56.078Z,100452.49
2022-10-30T16:59:46.268Z,100448.38
2022-10-30T17:02:20.469Z,100452.85
2022-10-30T17:05:25.414Z,100454.08
2022-10-30T17:08:05.242Z,100453.63
2022-10-30T17:10:36.482Z,100456.77
2022-10-30T17:13:35.215Z,100460.20
2022-10-30T17:16:31.034Z,100459.13
2022-10-30T17:19:30.110Z,100459.34
2022-10-30T17:22:02.531Z,100468.14
2022-10-30T17:24:48.651Z,100470.05
2022-10-30T17:27:36.569Z,100468.63
2022-10-30T17:30:35.991Z,100473.30
2022-10-30T17:33:35.391Z,100478.31
2022-10-30T17:36:06.144Z,100474.17
2022-10-30T17:38:34.765Z,100475.83
2022-10-30T17:41:20.447Z,100478.90
2022-10-30T17:43:55.276Z,100482.65
2022-10-30T17:46:24.323Z,100482.52
2022-10-30T17:49:25.001Z,100484.10
2022-10-30T17:52:18.428Z,100481.73
2022-10-30T17:54:46.900Z,100483.41
2022-10-30T17:57:16.916Z,100481.70
2022-10-30T17:59:45.510Z,100480.02
2022-10-30T18:02:23.009Z,100483.08
2022-10-30T18:04:53.296Z,100480.59
2022-10-30T18:07:21.549Z,100480.89
2022-10-30T18:09:49.775Z,100485.73
2022-10-30T18:12:19.274Z,100487.08
2022-10-30T18:15:36.605Z,100490.66
2022-10-30T18:18:05.971Z,100490.30
2022-10-30T18:20:34.460Z,100489.05
2022-10-30T18:23:03.420Z,100490.67
2022-10-30T18:25:36.117Z,100492.62
2022-10-30T18:28:04.771Z,100496.51
2022-10-30T18:30:33.132Z,100500.19
2022-10-30T18:33:02.168Z,100497.91
2022-10-30T18:35:39.236Z,100500.27
2022-10-30T18:38:25.472Z,100495.67
2022-10-30T18:40:53.905Z,100495.84
2022-10-30T18:43:22.160Z,100496.10
2022-10-30T18:45:50.570Z,100497.03
2022-10-30T18:48:36.891Z,100493.73
2022-10-30T18:51:12.538Z,100497.60
2022-10-30T18:53:40.770Z,100496.02
2022-10-30T18:56:10.395Z,100492.83
2022-10-30T18:58:38.658Z,100491.52
2022-10-30T19:01:12.131Z,100493.11
2022-10-30T19:03:41.849Z,100489.34
2022-10-30T19:06:13.696Z,100487.52
2022-10-30T19:08:59.317Z,100486.45
2022-10-30T19:11:30.929Z,100490.17
2022-10-30T19:13:59.933Z,100487.75
2022-10-30T19:16:29.116Z,100487.61
2022-10-30T19:18:57.399Z,100489.19
2022-10-30T19:21:26.269Z,100488.33
2022-10-30T19:24:15.563Z,100485.92
2022-10-30T19:26:43.879Z,100483.95
2022-10-30T19:29:29.916Z,100484.31
2022-10-30T19:31:58.171Z,100483.58
2022-10-30T19:34:26.430Z,100485.34
2022-10-30T19:36:56.649Z,100489.08
2022-10-30T19:39:25.202Z,100490.11
2022-10-30T19:41:53.547Z,100489.97
2022-10-30T19:44:21.803Z,100491.21
2022-10-30T19:47:10.589Z,100492.86
2022-10-30T19:49:56.410Z,100493.02
2022-10-30T19:52:29.147Z,100490.69
2022-10-30T19:55:17.375Z,100490.77
2022-10-30T19:57:46.483Z,100494.67
2022-10-30T20:00:21.299Z,100493.65
2022-10-30T20:03:07.909Z,100494.64
2022-10-30T20:05:40.600Z,100494.16
2022-10-30T20:08:17.934Z,100495.21
2022-10-30T20:11:03.898Z,100498.08
2022-10-30T20:13:33.449Z,100501.77
2022-10-30T20:16:07.290Z,100503.98
2022-10-30T20:18:36.432Z,100504.64
2022-10-30T20:21:10.640Z,100503.78
2022-10-30T20:23:39.536Z,100506.32
2022-10-30T20:26:30.137Z,100505.87
2022-10-30T20:29:02.250Z,100504.34
2022-10-30T20:31:30.555Z,100505.70
2022-10-30T20:33:58.886Z,100509.67
2022-10-30T20:36:29.138Z,100509.79
2022-10-30T20:38:57.561Z,100509.46
2022-10-30T20:41:29.386Z,100508.11
2022-10-30T20:44:00.165Z,100513.95
2022-10-30T20:46:28.633Z,100516.17
2022-10-30T20:48:57.054Z,100513.98
2022-10-30T20:51:25.836Z,100518.01
2022-10-30T20:53:54.693Z,100519.15
2022-10-30T20:56:23.114Z,100517.39
2022-10-30T20:58:53.469Z,100521.99
2022-10-30T21:01:21.850Z,100524.29
2022-10-30T21:03:50.972Z,100525.13
2022-10-30T21:06:19.249Z,100527.50
2022-10-30T21:08:47.481Z,100525.80
2022-10-30T21:11:18.097Z,100525.47
2022-10-30T21:13:46.397Z,100525.90
2022-10-30T21:16:14.609Z,100521.84
2022-10-30T21:18:42.931Z,100525.94
2022-10-30T21:21:13.433Z,100521.25
2022-10-30T21:23:41.743Z,100523.08
2022-10-30T21:26:11.829Z,100524.31
2022-10-30T21:28:41.222Z,100525.11
2022-10-30T21:31:13.274Z,100526.46
2022-10-30T21:33:41.591Z,100524.72
2022-10-30T21:36:27.538Z,100524.55
2022-10-30T21:38:58.401Z,100526.25
2022-10-30T21:41:27.172Z,100526.13
2022-10-30T21:43:57.494Z,100530.64
2022-10-30T21:46:29.390Z,100530.40
2022-10-30T21:49:06.204Z,100533.86
2022-10-30T21:51:34.969Z,100526.70
2022-10-30T21:54:03.424Z,100524.52
2022-10-30T21:56:50.114Z,100525.30
2022-10-30T21:59:18.399Z,100522.66
2022-10-30T22:01:46.823Z,100523.21
2022-10-30T22:04:16.219Z,100525.43
2022-10-30T22:06:44.814Z,100521.90
2022-10-30T22:09:18.295Z,100522.77
2022-10-30T22:12:04.475Z,100522.64
2022-10-30T22:14:32.669Z,100524.00
2022-10-30T22:17:18.249Z,100522.52
2022-10-30T22:19:46.574Z,100522.80
2022-10-30T22:22:14.802Z,100520.25
2022-10-30T22:24:43.075Z,100517.16
2022-10-30T22:27:11.392Z,100518.84
2022-10-30T22:29:39.626Z,100518.29
2022-10-30T22:32:07.872Z,100518.45
2022-10-30T22:34:36.135Z,100516.71
2022-10-30T22:37:21.621Z,100514.77
2022-10-30T22:39:49.793Z,100520.26
2022-10-30T22:42:18.030Z,100517.52
2022-10-30T22:44:46.365Z,100519.64
2022-10-30T22:47:14.604Z,100522.90
2022-10-30T22:49:42.867Z,100521.86
2022-10-30T22:52:11.155Z,100526.92
2022-10-30T22:54:39.385Z,100525.45
2022-10-30T22:57:07.599Z,100522.84
2022-10-30T22:59:51.245Z,100521.57
2022-10-30T23:02:19.499Z,100520.46
2022-10-30T23:04:47.805Z,100519.80
2022-10-30T23:07:17.043Z,100520.58
2022-10-30T23:09:45.299Z,100519.84
2022-10-30T23:12:13.557Z,100518.90
2022-10-30T23:14:41.809Z,100524.83
2022-10-30T23:17:10.050Z,100526.73
2022-10-30T23:19:38.460Z,100524.72
2022-10-30T23:22:06.849Z,100523.77
2022-10-30T23:24:35.137Z,100523.54
2022-10-30T23:27:03.486Z,100522.67
2022-10-30T23:29:31.929Z,100522.88
2022-10-30T23:32:00.252Z,100525.88
2022-10-30T23:34:28.504Z,100525.38
2022-10-30T23:36:59.188Z,100526.75
2022-10-30T23:39:30.303Z,100524.73
2022-10-30T23:41:58.526Z,100523.08
2022-10-30T23:44:26.735Z,100521.95
2022-10-30T23:46:54.921Z,100524.17
2022-10-30T23:49:23.142Z,100524.83
2022-10-30T23:51:51.429Z,100520.59
2022-10-30T23:54:19.674Z,100524.40
2022-10-30T23:56:48.024Z,100521.36
2022-10-30T23:59:16.258Z,100523.91
